createdAt,value
2018-01-18T00:00:39.972Z,0
2018-01-18T00:01:49.550Z,0
2018-01-18T00:02:59.609Z,0
2018-01-18T00:04:09.475Z,0
2018-01-18T00:05:19.518Z,0
2018-01-18T00:06:29.058Z,0
2018-01-18T00:07:39.089Z,0
2018-01-18T00:08:48.868Z,0
2018-01-18T00:09:58.925Z,0
2018-01-18T00:11:08.968Z,0
2018-01-18T00:12:19.020Z,0
2018-01-18T00:13:29.100Z,0
2018-01-18T00:14:39.157Z,0
2018-01-18T00:15:49.248Z,0
2018-01-18T00:16:59.990Z,0
2018-01-18T00:18:10.052Z,0
2018-01-18T00:19:20.154Z,0
2018-01-18T00:20:30.187Z,0
2018-01-18T00:21:39.442Z,0
2018-01-18T00:22:49.776Z,0
2018-01-18T00:23:59.881Z,0
2018-01-18T00:25:09.924Z,0
2018-01-18T00:26:20.025Z,0
2018-01-18T00:27:30.064Z,0
2018-01-18T00:28:40.110Z,0
2018-01-18T00:29:49.893Z,0
2018-01-18T00:30:59.992Z,0
2018-01-18T00:32:09.780Z,0
2018-01-18T00:33:19.841Z,0
2018-01-18T00:34:29.872Z,0
2018-01-18T00:35:39.665Z,0
2018-01-18T00:36:49.729Z,0
2018-01-18T00:37:59.768Z,0
2018-01-18T00:39:09.823Z,0
2018-01-18T00:40:19.870Z,0
2018-01-18T00:41:29.905Z,0
2018-01-18T00:42:39.999Z,0
2018-01-18T00:43:49.799Z,0
2018-01-18T00:44:59.843Z,0
2018-01-18T00:46:09.880Z,0
2018-01-18T00:47:19.663Z,0
2018-01-18T00:48:29.495Z,0
2018-01-18T00:49:39.534Z,0
2018-01-18T00:50:49.573Z,0
2018-01-18T00:51:59.631Z,0
2018-01-18T00:53:09.675Z,0
2018-01-18T00:54:19.818Z,0
2018-01-18T00:55:29.863Z,0
2018-01-18T00:56:39.908Z,0
2018-01-18T00:57:49.961Z,0
2018-01-18T00:58:59.998Z,0
2018-01-18T01:00:10.099Z,0
2018-01-18T01:01:20.149Z,0
2018-01-18T01:02:29.921Z,0
2018-01-18T01:03:39.467Z,0
2018-01-18T01:04:48.997Z,0
2018-01-18T01:05:59.102Z,0
2018-01-18T01:07:09.209Z,0
2018-01-18T01:08:18.755Z,0
2018-01-18T01:09:28.805Z,0
2018-01-18T01:10:38.847Z,0
2018-01-18T01:11:48.932Z,0
2018-01-18T01:12:58.987Z,0
2018-01-18T01:14:09.032Z,0
2018-01-18T01:15:19.075Z,0
2018-01-18T01:16:29.121Z,0
2018-01-18T01:17:38.636Z,0
2018-01-18T01:18:48.724Z,0
2018-01-18T01:19:58.773Z,0
2018-01-18T01:21:08.811Z,0
2018-01-18T01:22:18.605Z,0
2018-01-18T01:23:28.661Z,0
2018-01-18T01:34:45.302Z,0
2018-01-18T01:35:54.826Z,0
2018-01-18T01:37:04.610Z,0
2018-01-18T01:38:14.669Z,0
2018-01-18T01:39:24.763Z,0
2018-01-18T01:40:34.550Z,0
2018-01-18T01:41:44.605Z,0
2018-01-18T01:42:54.374Z,0
2018-01-18T01:44:04.415Z,0
2018-01-18T01:45:14.521Z,0
2018-01-18T01:46:24.562Z,0
2018-01-18T01:47:34.628Z,0
2018-01-18T01:48:44.683Z,0
2018-01-18T01:49:54.730Z,0
2018-01-18T01:51:04.797Z,0
2018-01-18T01:52:14.837Z,0
2018-01-18T01:53:24.890Z,0
2018-01-18T01:54:34.952Z,0
2018-01-18T01:55:44.990Z,0
2018-01-18T01:56:54.815Z,0
2018-01-18T01:58:04.859Z,0
2018-01-18T01:59:14.927Z,0
2018-01-18T02:00:24.966Z,0
2018-01-18T02:01:35.013Z,0
2018-01-18T02:02:45.049Z,0
2018-01-18T02:03:55.101Z,0
2018-01-18T02:05:05.150Z,0
2018-01-18T02:06:15.185Z,0
2018-01-18T02:07:25.240Z,0
2018-01-18T02:08:35.383Z,0
2018-01-18T02:09:45.419Z,0
2018-01-18T02:10:55.451Z,0
2018-01-18T02:12:05.515Z,0
2018-01-18T02:13:15.550Z,0
2018-01-18T02:14:25.588Z,0
2018-01-18T02:15:35.633Z,0
2018-01-18T02:16:45.682Z,0
2018-01-18T02:17:55.731Z,0
2018-01-18T02:19:05.797Z,0
2018-01-18T02:20:16.904Z,0
2018-01-18T02:21:26.945Z,0
2018-01-18T02:22:37.007Z,0
2018-01-18T02:23:47.059Z,0
2018-01-18T02:24:57.088Z,0
2018-01-18T02:26:07.117Z,0
2018-01-18T02:27:17.181Z,0
2018-01-18T02:28:27.243Z,0
2018-01-18T02:29:37.286Z,0
2018-01-18T02:30:47.427Z,0
2018-01-18T02:31:57.521Z,0
2018-01-18T02:33:07.567Z,0
2018-01-18T02:34:17.634Z,0
2018-01-18T02:35:27.670Z,0
2018-01-18T02:36:37.444Z,0
2018-01-18T02:37:47.536Z,0
2018-01-18T02:38:57.317Z,0
2018-01-18T02:40:07.362Z,0
2018-01-18T02:41:17.415Z,0
2018-01-18T02:42:27.231Z,0
2018-01-18T02:43:37.286Z,0
2018-01-18T02:44:46.546Z,0
2018-01-18T02:45:56.335Z,0
2018-01-18T02:47:06.121Z,0
2018-01-18T02:48:16.220Z,0
2018-01-18T02:49:26.321Z,0
2018-01-18T02:50:36.372Z,0
2018-01-18T02:51:46.424Z,0
2018-01-18T02:52:56.215Z,0
2018-01-18T02:54:05.991Z,0
2018-01-18T02:55:16.092Z,0
2018-01-18T02:56:26.138Z,0
2018-01-18T02:57:36.175Z,0
2018-01-18T02:58:46.223Z,0
2018-01-18T02:59:56.323Z,0
2018-01-18T03:01:06.512Z,0
2018-01-18T03:02:17.336Z,0
2018-01-18T03:34:36.062Z,0
2018-01-18T03:35:46.121Z,0
2018-01-18T03:36:56.153Z,0
2018-01-18T03:38:05.939Z,0
2018-01-18T03:39:15.983Z,0
2018-01-18T03:40:25.809Z,0
2018-01-18T03:41:35.835Z,0
2018-01-18T03:42:45.904Z,0
2018-01-18T03:43:55.948Z,0
2018-01-18T03:45:05.996Z,0
2018-01-18T03:46:16.100Z,0
2018-01-18T03:47:26.153Z,0
2018-01-18T03:48:36.192Z,0
2018-01-18T03:49:46.254Z,0
2018-01-18T03:50:56.302Z,0
2018-01-18T03:52:06.396Z,0
2018-01-18T03:53:16.465Z,0
2018-01-18T03:54:26.531Z,0
2018-01-18T03:55:36.310Z,0
2018-01-18T03:56:46.362Z,0
2018-01-18T03:57:56.447Z,0
2018-01-18T03:59:06.225Z,0
2018-01-18T04:00:16.018Z,0
2018-01-18T04:01:26.042Z,0
2018-01-18T04:02:36.085Z,0
2018-01-18T04:03:46.288Z,0
2018-01-18T04:04:56.336Z,0
2018-01-18T04:06:06.123Z,0
2018-01-18T04:07:16.169Z,0
2018-01-18T04:08:25.956Z,0
2018-01-18T04:09:35.750Z,0
2018-01-18T04:10:45.804Z,0
2018-01-18T04:11:55.865Z,0
2018-01-18T04:13:05.908Z,0
2018-01-18T04:14:15.944Z,0
2018-01-18T04:15:25.981Z,0
2018-01-18T04:16:35.760Z,0
2018-01-18T04:17:45.805Z,0
2018-01-18T04:18:55.853Z,0
2018-01-18T04:20:05.638Z,0
2018-01-18T04:21:15.690Z,0
2018-01-18T04:22:25.733Z,0
2018-01-18T04:23:35.513Z,0
2018-01-18T04:24:45.561Z,0
2018-01-18T04:25:55.611Z,0
2018-01-18T04:27:05.459Z,0
2018-01-18T04:28:15.512Z,0
2018-01-18T04:29:25.310Z,0
2018-01-18T04:30:35.344Z,0
2018-01-18T04:31:45.134Z,0
2018-01-18T04:32:55.194Z,0
2018-01-18T04:34:05.247Z,0
2018-01-18T04:35:15.036Z,0
2018-01-18T04:36:24.826Z,0
2018-01-18T04:37:34.864Z,0
2018-01-18T04:38:45.000Z,0
2018-01-18T04:39:55.105Z,0
2018-01-18T04:41:05.140Z,0
2018-01-18T04:42:14.934Z,0
2018-01-18T04:43:24.981Z,0
2018-01-18T04:44:34.827Z,0
2018-01-18T04:45:44.871Z,0
2018-01-18T04:46:54.910Z,0
2018-01-18T04:48:04.995Z,0
2018-01-18T04:49:15.039Z,0
2018-01-18T04:50:25.124Z,0
2018-01-18T04:51:35.187Z,0
2018-01-18T04:52:44.958Z,0
2018-01-18T04:53:55.023Z,0
2018-01-18T04:55:04.806Z,0
2018-01-18T04:56:14.894Z,0
2018-01-18T04:57:24.956Z,0
2018-01-18T04:58:35.057Z,0
2018-01-18T04:59:45.095Z,0
2018-01-18T05:00:55.141Z,0
2018-01-18T05:02:05.185Z,0
2018-01-18T05:03:15.233Z,0
2018-01-18T05:04:25.026Z,0
2018-01-18T05:05:34.841Z,0
2018-01-18T05:06:44.880Z,0
2018-01-18T05:07:54.979Z,0
2018-01-18T05:09:05.019Z,0
2018-01-18T05:10:15.058Z,0
2018-01-18T05:11:25.089Z,0
2018-01-18T05:12:34.882Z,0
2018-01-18T05:13:45.023Z,0
2018-01-18T05:14:54.812Z,0
2018-01-18T05:16:04.665Z,0
2018-01-18T05:17:14.464Z,0
2018-01-18T05:18:24.593Z,0
2018-01-18T05:19:34.378Z,0
2018-01-18T05:20:44.179Z,0
2018-01-18T05:21:53.972Z,0
2018-01-18T05:23:04.028Z,0
2018-01-18T05:24:14.071Z,0
2018-01-18T05:25:23.948Z,0
2018-01-18T05:26:33.722Z,0
2018-01-18T05:27:43.768Z,0
2018-01-18T05:28:53.556Z,0
2018-01-18T05:30:03.612Z,0
2018-01-18T05:31:13.704Z,0
2018-01-18T05:32:23.746Z,0
2018-01-18T05:33:33.794Z,0
2018-01-18T05:34:43.327Z,0
2018-01-18T05:35:53.382Z,0
2018-01-18T05:37:03.284Z,0
2018-01-18T05:38:13.376Z,0
2018-01-18T05:39:23.421Z,0
2018-01-18T05:40:33.467Z,0
2018-01-18T05:41:43.501Z,0
2018-01-18T05:42:53.655Z,0
2018-01-18T05:44:03.708Z,0
2018-01-18T05:45:13.762Z,0
2018-01-18T05:46:23.803Z,0
2018-01-18T05:47:33.845Z,0
2018-01-18T05:48:43.998Z,0
2018-01-18T05:49:53.783Z,0
2018-01-18T05:51:03.556Z,0
2018-01-18T05:52:13.340Z,0
2018-01-18T05:53:23.130Z,0
2018-01-18T05:54:32.970Z,0
2018-01-18T05:55:43.023Z,0
2018-01-18T05:56:53.068Z,0
2018-01-18T05:58:03.136Z,0
2018-01-18T05:59:12.957Z,0
2018-01-18T06:00:23.044Z,0
2018-01-18T06:01:32.567Z,0
2018-01-18T06:02:42.349Z,0
2018-01-18T06:03:52.375Z,0
2018-01-18T06:05:02.170Z,4
2018-01-18T06:06:12.264Z,4
2018-01-18T06:07:22.319Z,0
2018-01-18T06:08:32.114Z,0
2018-01-18T06:09:41.896Z,4
2018-01-18T06:10:51.684Z,0
2018-01-18T06:12:01.468Z,4
2018-01-18T06:13:11.538Z,4
2018-01-18T06:14:21.608Z,4
2018-01-18T06:15:31.665Z,4
2018-01-18T06:16:41.707Z,8
2018-01-18T06:17:51.267Z,8
2018-01-18T06:19:01.319Z,12
2018-01-18T06:20:11.366Z,12
2018-01-18T06:21:21.416Z,12
2018-01-18T06:22:31.469Z,20
2018-01-18T06:23:41.317Z,24
2018-01-18T06:24:51.362Z,28
2018-01-18T06:26:01.405Z,32
2018-01-18T06:27:11.451Z,40
2018-01-18T06:28:21.496Z,44
2018-01-18T06:29:31.937Z,52
2018-01-18T06:30:41.718Z,60
2018-01-18T06:31:51.772Z,64
2018-01-18T06:33:01.820Z,80
2018-01-18T06:34:11.621Z,88
2018-01-18T06:35:21.456Z,100
2018-01-18T06:36:31.498Z,112
2018-01-18T06:37:41.542Z,124
2018-01-18T06:38:51.063Z,140
2018-01-18T06:40:00.610Z,160
2018-01-18T06:41:10.435Z,172
2018-01-18T06:42:20.467Z,188
2018-01-18T06:43:30.265Z,204
2018-01-18T06:44:40.041Z,224
2018-01-18T06:45:50.107Z,244
2018-01-18T06:46:59.891Z,264
2018-01-18T06:48:09.672Z,288
2018-01-18T06:49:19.723Z,312
2018-01-18T06:50:29.771Z,332
2018-01-18T06:51:39.300Z,360
2018-01-18T06:52:48.898Z,384
2018-01-18T06:53:58.702Z,408
2018-01-18T06:55:08.741Z,436
2018-01-18T06:56:18.535Z,476
2018-01-18T06:57:28.320Z,520
2018-01-18T06:58:38.387Z,552
2018-01-18T06:59:48.434Z,592
2018-01-18T07:00:58.480Z,628
2018-01-18T07:02:08.262Z,672
2018-01-18T07:03:18.302Z,712
2018-01-18T07:04:28.399Z,756
2018-01-18T07:05:38.191Z,808
2018-01-18T07:06:48.229Z,852
2018-01-18T07:07:58.032Z,900
2018-01-18T07:09:07.809Z,944
2018-01-18T07:10:17.614Z,984
2018-01-18T07:11:27.712Z,1012
2018-01-18T07:12:37.508Z,1060
2018-01-18T07:13:47.571Z,1108
2018-01-18T07:14:57.620Z,1144
2018-01-18T07:16:07.688Z,1132
2018-01-18T07:17:17.709Z,988
2018-01-18T07:18:27.754Z,1008
2018-01-18T07:19:37.812Z,1268
2018-01-18T07:20:47.613Z,1360
2018-01-18T07:21:57.713Z,1424
2018-01-18T07:23:08.965Z,1504
2018-01-18T07:24:19.093Z,1556
2018-01-18T07:25:29.139Z,1532
2018-01-18T07:26:39.182Z,1172
2018-01-18T07:27:48.713Z,1632
2018-01-18T07:28:58.773Z,1748
2018-01-18T07:30:09.689Z,1864
2018-01-18T07:31:20.042Z,1676
2018-01-18T07:32:30.103Z,1648
2018-01-18T07:33:40.162Z,2004
2018-01-18T07:34:50.197Z,1980
2018-01-18T07:35:59.983Z,2112
2018-01-18T07:37:10.049Z,2156
2018-01-18T07:38:20.283Z,2300
2018-01-18T07:39:30.320Z,2172
2018-01-18T07:40:40.391Z,1880
2018-01-18T07:41:50.488Z,1476
2018-01-18T07:43:00.544Z,1428
2018-01-18T07:44:10.587Z,1368
2018-01-18T07:45:20.368Z,1316
2018-01-18T07:46:30.407Z,1276
2018-01-18T07:47:40.456Z,1236
2018-01-18T07:48:50.523Z,1244
2018-01-18T07:50:00.578Z,1288
2018-01-18T07:51:10.653Z,1356
2018-01-18T07:52:20.697Z,1360
2018-01-18T07:53:30.481Z,1364
2018-01-18T07:54:40.258Z,1372
2018-01-18T07:55:50.298Z,1384
2018-01-18T07:57:00.356Z,1388
2018-01-18T07:58:09.898Z,1404
2018-01-18T07:59:19.989Z,1420
2018-01-18T08:00:29.906Z,1432
2018-01-18T08:01:39.957Z,1464
2018-01-18T08:02:50.010Z,1504
2018-01-18T08:03:59.790Z,1544
2018-01-18T08:05:09.860Z,1592
2018-01-18T08:06:19.694Z,1640
2018-01-18T08:07:30.138Z,1672
2018-01-18T08:08:40.233Z,1660
2018-01-18T08:09:50.981Z,1612
2018-01-18T08:11:01.016Z,1548
2018-01-18T08:12:11.124Z,1500
2018-01-18T08:13:21.695Z,1472
2018-01-18T08:14:31.747Z,1464
2018-01-18T08:15:42.858Z,1484
2018-01-18T08:16:52.386Z,1508
2018-01-18T08:18:02.423Z,1556
2018-01-18T08:19:12.459Z,1632
2018-01-18T08:20:22.500Z,1716
2018-01-18T08:21:32.294Z,1808
2018-01-18T08:22:42.060Z,1892
2018-01-18T08:23:52.176Z,1996
2018-01-18T08:25:02.243Z,2076
2018-01-18T08:26:12.288Z,2124
2018-01-18T08:27:22.075Z,2168
2018-01-18T08:28:31.858Z,2256
2018-01-18T08:29:42.016Z,2308
2018-01-18T08:30:52.064Z,2316
2018-01-18T08:32:02.115Z,2392
2018-01-18T08:33:12.245Z,2524
2018-01-18T08:34:22.112Z,2596
2018-01-18T08:35:32.214Z,2692
2018-01-18T08:36:42.276Z,2900
2018-01-18T08:37:52.070Z,3076
2018-01-18T08:39:01.859Z,3196
2018-01-18T08:40:11.653Z,3240
2018-01-18T08:41:21.547Z,2812
2018-01-18T08:42:31.344Z,2736
2018-01-18T08:43:41.409Z,2868
2018-01-18T08:44:51.462Z,3076
2018-01-18T08:46:01.255Z,2720
2018-01-18T08:47:11.305Z,2764
2018-01-18T08:48:21.350Z,2656
2018-01-18T08:49:31.449Z,2460
2018-01-18T08:50:41.493Z,2356
2018-01-18T08:51:51.570Z,2316
2018-01-18T08:53:01.451Z,2372
2018-01-18T08:54:11.500Z,2576
2018-01-18T08:55:21.558Z,2672
2018-01-18T08:56:31.616Z,2648
2018-01-18T08:57:41.709Z,2604
2018-01-18T08:58:51.753Z,2564
2018-01-18T09:00:01.816Z,2508
2018-01-18T09:01:11.605Z,2472
2018-01-18T09:02:21.417Z,2456
2018-01-18T09:03:31.888Z,2432
2018-01-18T09:04:43.089Z,2372
2018-01-18T09:05:53.155Z,2332
2018-01-18T09:07:02.965Z,2300
2018-01-18T09:08:13.018Z,2288
2018-01-18T09:09:23.009Z,2304
2018-01-18T09:10:33.581Z,2332
2018-01-18T09:11:43.687Z,2348
2018-01-18T09:12:54.295Z,2344
2018-01-18T09:14:05.609Z,2332
2018-01-18T09:15:15.173Z,2336
2018-01-18T09:16:25.227Z,2348
2018-01-18T09:17:35.317Z,2352
2018-01-18T09:18:46.778Z,2340
2018-01-18T09:19:56.873Z,2308
2018-01-18T09:21:06.958Z,2308
2018-01-18T09:22:17.144Z,2352
2018-01-18T09:23:27.215Z,2380
2018-01-18T09:24:37.006Z,2388
2018-01-18T09:25:50.600Z,2400
2018-01-18T09:27:02.503Z,2424
2018-01-18T09:28:12.721Z,2428
2018-01-18T09:29:22.821Z,2432
2018-01-18T09:30:33.035Z,2464
2018-01-18T09:31:43.090Z,2536
2018-01-18T09:32:53.129Z,2588
2018-01-18T09:34:03.021Z,2560
2018-01-18T09:35:12.863Z,2468
2018-01-18T09:36:22.906Z,2376
2018-01-18T09:37:32.687Z,2300
2018-01-18T09:38:42.205Z,2288
2018-01-18T09:39:52.276Z,2356
2018-01-18T09:41:02.333Z,2420
2018-01-18T09:42:11.872Z,2440
2018-01-18T09:43:21.925Z,2464
2018-01-18T09:44:33.081Z,2520
2018-01-18T09:45:43.244Z,2616
2018-01-18T09:46:53.308Z,2720
2018-01-18T09:48:03.364Z,2788
2018-01-18T09:49:13.440Z,2824
2018-01-18T09:50:23.504Z,2836
2018-01-18T09:51:33.074Z,2856
2018-01-18T09:52:43.133Z,2868
2018-01-18T09:53:53.174Z,2840
2018-01-18T09:55:03.239Z,2764
2018-01-18T09:56:13.300Z,2664
2018-01-18T09:57:23.424Z,2540
2018-01-18T09:58:33.482Z,2404
2018-01-18T09:59:43.536Z,2260
2018-01-18T10:00:53.597Z,2100
2018-01-18T10:02:03.653Z,1968
2018-01-18T10:03:13.775Z,1864
2018-01-18T10:04:23.319Z,1748
2018-01-18T10:05:33.387Z,1696
2018-01-18T10:06:43.187Z,1712
2018-01-18T10:07:52.998Z,1760
2018-01-18T10:09:03.168Z,1788
2018-01-18T10:10:12.941Z,1796
2018-01-18T10:11:22.984Z,1812
2018-01-18T10:12:33.027Z,1832
2018-01-18T10:13:43.080Z,1816
2018-01-18T10:14:53.205Z,1784
2018-01-18T10:16:03.256Z,1760
2018-01-18T10:17:13.063Z,1772
2018-01-18T10:18:22.603Z,1832
2018-01-18T10:19:32.407Z,1876
2018-01-18T10:20:42.583Z,1852
2018-01-18T10:21:52.391Z,1796
2018-01-18T10:23:02.464Z,1724
2018-01-18T10:24:12.308Z,1612
2018-01-18T10:25:22.115Z,1528
2018-01-18T10:26:32.436Z,1484
2018-01-18T10:27:42.483Z,1424
2018-01-18T10:28:52.540Z,1420
2018-01-18T10:30:02.600Z,1496
2018-01-18T10:31:12.378Z,1552
2018-01-18T10:32:22.498Z,1552
2018-01-18T10:33:32.293Z,1496
2018-01-18T10:34:42.355Z,1452
2018-01-18T10:35:52.838Z,1468
2018-01-18T10:37:02.636Z,1488
2018-01-18T10:38:12.455Z,1472
2018-01-18T10:39:22.250Z,1412
2018-01-18T10:40:32.314Z,1404
2018-01-18T10:41:42.391Z,1400
2018-01-18T10:42:52.504Z,1352
2018-01-18T10:44:02.548Z,1268
2018-01-18T10:45:12.609Z,1208
2018-01-18T10:46:22.400Z,1164
2018-01-18T10:47:32.450Z,1132
2018-01-18T10:48:42.500Z,1116
2018-01-18T10:49:52.610Z,1108
2018-01-18T10:51:02.414Z,1092
2018-01-18T10:52:12.476Z,1092
2018-01-18T10:53:22.536Z,1108
2018-01-18T10:54:32.344Z,1120
2018-01-18T10:55:42.441Z,1124
2018-01-18T10:56:52.259Z,1112
2018-01-18T10:58:02.309Z,1116
2018-01-18T10:59:12.101Z,1116
2018-01-18T11:00:22.199Z,1148
2018-01-18T11:01:32.307Z,1212
2018-01-18T11:02:42.422Z,1268
2018-01-18T11:03:52.202Z,1256
2018-01-18T11:05:02.047Z,1208
2018-01-18T11:06:12.104Z,1176
2018-01-18T11:07:22.229Z,1104
2018-01-18T11:08:32.006Z,1048
2018-01-18T11:09:42.088Z,1056
2018-01-18T11:10:51.892Z,1112
2018-01-18T11:12:01.964Z,1164
2018-01-18T11:13:12.038Z,1152
2018-01-18T11:14:22.109Z,1112
2018-01-18T11:15:31.658Z,1080
2018-01-18T11:16:41.452Z,1036
2018-01-18T11:17:52.158Z,956
2018-01-18T11:19:02.333Z,880
2018-01-18T11:20:12.378Z,860
2018-01-18T11:21:22.418Z,840
2018-01-18T11:22:31.996Z,856
2018-01-18T11:23:42.063Z,852
2018-01-18T11:24:51.612Z,840
2018-01-18T11:26:01.669Z,820
2018-01-18T11:27:11.777Z,792
2018-01-18T11:28:21.576Z,804
2018-01-18T11:29:31.630Z,816
2018-01-18T11:30:41.692Z,796
2018-01-18T11:31:51.744Z,744
2018-01-18T11:33:01.553Z,716
2018-01-18T11:34:11.857Z,736
2018-01-18T11:35:21.912Z,768
2018-01-18T11:36:32.101Z,776
2018-01-18T11:37:41.905Z,768
2018-01-18T11:38:51.962Z,760
2018-01-18T11:40:01.775Z,736
2018-01-18T11:41:11.878Z,712
2018-01-18T11:42:22.004Z,700
2018-01-18T11:43:32.132Z,712
2018-01-18T11:44:42.201Z,724
2018-01-18T11:45:52.036Z,704
2018-01-18T11:47:02.092Z,684
2018-01-18T11:48:12.314Z,684
2018-01-18T11:49:22.440Z,704
2018-01-18T11:50:32.524Z,756
2018-01-18T11:51:42.559Z,756
2018-01-18T11:52:52.600Z,756
2018-01-18T11:54:02.783Z,764
2018-01-18T11:55:12.840Z,800
2018-01-18T11:56:22.909Z,844
2018-01-18T11:57:32.711Z,868
2018-01-18T11:58:42.775Z,864
2018-01-18T11:59:52.592Z,908
2018-01-18T12:01:02.650Z,956
2018-01-18T12:02:12.691Z,964
2018-01-18T12:03:22.525Z,920
2018-01-18T12:04:32.624Z,844
2018-01-18T12:05:42.680Z,756
2018-01-18T12:06:52.481Z,684
2018-01-18T12:08:02.798Z,704
2018-01-18T12:09:12.602Z,772
2018-01-18T12:10:22.641Z,800
2018-01-18T12:11:32.808Z,776
2018-01-18T12:12:42.591Z,784
2018-01-18T12:13:52.491Z,768
2018-01-18T12:15:02.570Z,792
2018-01-18T12:16:13.787Z,800
2018-01-18T12:17:24.525Z,808
2018-01-18T12:18:34.361Z,808
2018-01-18T12:19:44.151Z,768
2018-01-18T12:20:54.207Z,736
2018-01-18T12:22:04.281Z,680
2018-01-18T12:23:14.386Z,648
2018-01-18T12:24:24.181Z,684
2018-01-18T12:25:34.254Z,704
2018-01-18T12:26:44.052Z,676
2018-01-18T12:27:54.135Z,640
2018-01-18T12:29:04.244Z,612
2018-01-18T12:30:14.291Z,580
2018-01-18T12:31:24.418Z,536
2018-01-18T12:32:34.222Z,516
2018-01-18T12:33:44.377Z,512
2018-01-18T12:34:54.522Z,516
2018-01-18T12:36:04.584Z,552
2018-01-18T12:37:14.648Z,600
2018-01-18T12:38:24.715Z,620
2018-01-18T12:39:34.784Z,600
2018-01-18T12:40:44.898Z,560
2018-01-18T12:41:54.949Z,568
2018-01-18T12:43:05.006Z,640
2018-01-18T12:44:15.055Z,728
2018-01-18T12:45:25.098Z,820
2018-01-18T12:46:35.016Z,788
2018-01-18T12:47:44.818Z,748
2018-01-18T12:48:54.684Z,848
2018-01-18T12:50:04.807Z,1024
2018-01-18T12:51:15.867Z,1184
2018-01-18T12:52:25.975Z,1292
2018-01-18T12:53:36.042Z,1344
2018-01-18T12:54:45.862Z,1404
2018-01-18T12:55:55.906Z,1512
2018-01-18T12:57:05.973Z,1700
2018-01-18T12:58:16.158Z,1856
2018-01-18T12:59:26.008Z,1912
2018-01-18T13:00:35.538Z,1840
2018-01-18T13:01:45.610Z,1664
2018-01-18T13:02:55.646Z,1700
2018-01-18T13:04:05.511Z,1720
2018-01-18T13:05:15.589Z,1544
2018-01-18T13:06:25.394Z,1276
2018-01-18T13:07:35.478Z,1112
2018-01-18T13:08:45.547Z,1060
2018-01-18T13:09:55.662Z,940
2018-01-18T13:11:05.752Z,796
2018-01-18T13:12:15.546Z,696
2018-01-18T13:13:25.604Z,692
2018-01-18T13:14:35.680Z,744
2018-01-18T13:15:45.808Z,892
2018-01-18T13:16:55.883Z,1024
2018-01-18T13:18:05.673Z,1068
2018-01-18T13:19:15.717Z,1024
2018-01-18T13:20:25.784Z,872
2018-01-18T13:21:36.487Z,796
2018-01-18T13:22:47.222Z,768
2018-01-18T13:23:57.292Z,824
2018-01-18T13:25:07.362Z,888
2018-01-18T13:26:17.439Z,964
2018-01-18T13:27:27.229Z,1084
2018-01-18T13:28:37.026Z,1164
2018-01-18T13:29:47.107Z,1100
2018-01-18T13:30:57.163Z,952
2018-01-18T13:32:07.272Z,896
2018-01-18T13:33:17.396Z,904
2018-01-18T13:34:27.461Z,924
2018-01-18T13:35:37.525Z,924
2018-01-18T13:36:47.598Z,928
2018-01-18T13:37:57.651Z,932
2018-01-18T13:39:07.845Z,928
2018-01-18T13:40:17.893Z,868
2018-01-18T13:41:28.215Z,800
2018-01-18T13:42:38.930Z,772
2018-01-18T13:43:48.997Z,784
2018-01-18T13:44:59.100Z,800
2018-01-18T13:46:09.184Z,812
2018-01-18T13:47:19.004Z,816
2018-01-18T13:48:28.827Z,808
2018-01-18T13:49:38.888Z,812
2018-01-18T13:50:49.384Z,812
2018-01-18T13:51:59.490Z,820
2018-01-18T13:53:09.538Z,824
2018-01-18T13:54:19.609Z,820
2018-01-18T13:55:29.718Z,824
2018-01-18T13:56:39.525Z,816
2018-01-18T13:57:49.569Z,756
2018-01-18T13:58:59.679Z,704
2018-01-18T14:00:09.730Z,768
2018-01-18T14:01:19.794Z,792
2018-01-18T14:02:29.596Z,788
2018-01-18T14:03:39.663Z,788
2018-01-18T14:04:49.499Z,792
2018-01-18T14:05:59.564Z,788
2018-01-18T14:07:09.632Z,784
2018-01-18T14:08:20.049Z,780
2018-01-18T14:09:30.118Z,764
2018-01-18T14:10:40.257Z,748
2018-01-18T14:11:50.307Z,708
2018-01-18T14:13:00.375Z,660
2018-01-18T14:14:10.417Z,560
2018-01-18T14:15:20.456Z,452
2018-01-18T14:16:30.353Z,408
2018-01-18T14:17:40.413Z,416
2018-01-18T14:18:50.533Z,440
2018-01-18T14:20:00.607Z,452
2018-01-18T14:21:10.691Z,464
2018-01-18T14:22:20.787Z,500
2018-01-18T14:23:32.438Z,544
2018-01-18T14:24:42.519Z,536
2018-01-18T14:25:52.604Z,504
2018-01-18T14:27:02.427Z,500
2018-01-18T14:28:12.536Z,512
2018-01-18T14:29:22.600Z,512
2018-01-18T14:30:32.674Z,472
2018-01-18T14:31:42.735Z,432
2018-01-18T14:32:52.538Z,412
2018-01-18T14:34:02.692Z,396
2018-01-18T14:35:12.736Z,384
2018-01-18T14:36:22.823Z,396
2018-01-18T14:37:32.886Z,392
2018-01-18T14:38:42.956Z,356
2018-01-18T14:39:53.074Z,324
2018-01-18T14:41:02.977Z,296
2018-01-18T14:42:12.771Z,288
2018-01-18T14:43:22.830Z,276
2018-01-18T14:44:32.905Z,272
2018-01-18T14:45:42.747Z,276
2018-01-18T14:46:52.661Z,276
2018-01-18T14:48:02.452Z,292
2018-01-18T14:49:12.526Z,320
2018-01-18T14:50:22.328Z,364
2018-01-18T14:51:32.470Z,436
2018-01-18T14:52:42.553Z,544
2018-01-18T14:53:52.111Z,636
2018-01-18T14:55:02.168Z,676
2018-01-18T14:56:12.255Z,688
2018-01-18T14:57:22.358Z,684
2018-01-18T14:58:32.418Z,680
2018-01-18T14:59:42.490Z,692
2018-01-18T15:00:52.557Z,684
2018-01-18T15:02:02.671Z,676
2018-01-18T15:03:12.515Z,672
2018-01-18T15:04:22.574Z,688
2018-01-18T15:05:32.632Z,640
2018-01-18T15:06:42.727Z,620
2018-01-18T15:07:52.785Z,592
2018-01-18T15:09:02.864Z,548
2018-01-18T15:10:12.908Z,512
2018-01-18T15:11:22.970Z,472
2018-01-18T15:12:33.046Z,436
2018-01-18T15:13:43.098Z,392
2018-01-18T15:14:53.265Z,348
2018-01-18T15:16:03.326Z,316
2018-01-18T15:17:13.365Z,280
2018-01-18T15:18:23.176Z,240
2018-01-18T15:19:33.243Z,212
2018-01-18T15:20:43.297Z,168
2018-01-18T15:21:53.345Z,136
2018-01-18T15:23:03.436Z,116
2018-01-18T15:24:13.496Z,100
2018-01-18T15:25:23.279Z,88
2018-01-18T15:26:33.382Z,72
2018-01-18T15:27:43.445Z,76
2018-01-18T15:28:53.503Z,76
2018-01-18T15:30:03.555Z,72
2018-01-18T15:31:13.355Z,84
2018-01-18T15:32:23.430Z,92
2018-01-18T15:33:33.495Z,92
2018-01-18T15:34:42.806Z,88
2018-01-18T15:35:52.863Z,80
2018-01-18T15:37:02.934Z,72
2018-01-18T15:38:13.085Z,60
2018-01-18T15:39:23.150Z,52
2018-01-18T15:40:32.973Z,52
2018-01-18T15:41:43.055Z,44
2018-01-18T15:42:52.931Z,40
2018-01-18T15:44:03.176Z,36
2018-01-18T15:45:13.269Z,28
2018-01-18T15:46:23.285Z,24
2018-01-18T15:47:33.346Z,20
2018-01-18T15:48:43.413Z,20
2018-01-18T15:49:53.299Z,16
2018-01-18T15:51:03.369Z,12
2018-01-18T15:52:13.431Z,12
2018-01-18T15:53:23.495Z,8
2018-01-18T15:54:33.293Z,4
2018-01-18T15:55:43.418Z,4
2018-01-18T15:56:53.495Z,4
2018-01-18T15:58:03.565Z,4
2018-01-18T15:59:13.388Z,4
2018-01-18T16:00:23.445Z,4
2018-01-18T16:01:33.574Z,0
2018-01-18T16:02:43.382Z,4
2018-01-18T16:03:53.437Z,4
2018-01-18T16:05:03.533Z,0
2018-01-18T16:06:14.286Z,0
2018-01-18T16:07:23.857Z,0
2018-01-18T16:08:33.674Z,0
2018-01-18T16:09:43.723Z,0
2018-01-18T16:10:53.591Z,0
2018-01-18T16:12:03.647Z,0
2018-01-18T16:13:13.917Z,0
2018-01-18T16:14:23.971Z,0
2018-01-18T16:15:34.010Z,0
2018-01-18T16:16:44.086Z,0
2018-01-18T16:17:54.167Z,0
2018-01-18T16:19:04.245Z,0
2018-01-18T16:20:14.283Z,0
2018-01-18T16:21:24.410Z,0
2018-01-18T16:22:34.218Z,0
2018-01-18T16:23:44.291Z,0
2018-01-18T16:24:56.119Z,0
2018-01-18T16:26:05.934Z,0
2018-01-18T16:27:15.975Z,0
2018-01-18T16:28:26.061Z,0
2018-01-18T16:29:36.187Z,0
2018-01-18T16:30:46.044Z,0
2018-01-18T16:31:56.144Z,0
2018-01-18T16:33:06.226Z,0
2018-01-18T16:34:16.304Z,0
2018-01-18T16:35:26.109Z,0
2018-01-18T16:36:36.484Z,0
2018-01-18T16:37:46.562Z,0
2018-01-18T16:38:56.632Z,0
2018-01-18T16:40:07.206Z,0
2018-01-18T16:41:17.333Z,0
2018-01-18T16:42:27.453Z,0
2018-01-18T16:43:37.549Z,0
2018-01-18T16:44:47.422Z,0
2018-01-18T16:45:57.260Z,0
2018-01-18T16:47:07.421Z,0
2018-01-18T16:48:17.342Z,0
2018-01-18T16:49:27.574Z,0
2018-01-18T16:50:37.646Z,0
2018-01-18T16:51:47.777Z,0
2018-01-18T16:52:57.630Z,0
2018-01-18T16:54:07.753Z,0
2018-01-18T16:55:18.011Z,0
2018-01-18T16:56:28.201Z,0
2018-01-18T16:57:38.061Z,0
2018-01-18T16:58:48.208Z,0
2018-01-18T16:59:58.332Z,0
2018-01-18T17:01:08.141Z,0
2018-01-18T17:02:18.226Z,0
2018-01-18T17:03:28.328Z,0
2018-01-18T17:04:38.128Z,0
2018-01-18T17:05:48.232Z,0